sensor_id;sensor_type;location;lat;lon;timestamp;pressure;altitude;pressure_sealevel;temperature;humidity
73870;BME280;64924;42.140;24.762;2023-05-06T00:00:56;99688.03;;;18.87;47.02
73870;BME280;64924;42.140;24.762;2023-05-06T00:03:21;99677.13;;;18.63;47.19
73870;BME280;64924;42.140;24.762;2023-05-06T00:05:47;99690.75;;;18.70;47.17
73870;BME280;64924;42.140;24.762;2023-05-06T00:08:13;99694.00;;;18.67;47.58
73870;BME280;64924;42.140;24.762;2023-05-06T00:10:39;99694.00;;;18.67;47.45
73870;BME280;64924;42.140;24.762;2023-05-06T00:13:04;99679.53;;;18.60;47.60
73870;BME280;64924;42.140;24.762;2023-05-06T00:15:30;99683.22;;;18.65;47.53
73870;BME280;64924;42.140;24.762;2023-05-06T00:17:55;99679.16;;;18.68;47.12
73870;BME280;64924;42.140;24.762;2023-05-06T00:20:21;99677.94;;;18.47;47.68
73870;BME280;64924;42.140;24.762;2023-05-06T00:22:47;99681.22;;;18.32;47.90
73870;BME280;64924;42.140;24.762;2023-05-06T00:25:12;99679.41;;;18.38;47.94
73870;BME280;64924;42.140;24.762;2023-05-06T00:27:38;99676.66;;;18.38;47.66
73870;BME280;64924;42.140;24.762;2023-05-06T00:30:04;99666.03;;;18.30;47.88
73870;BME280;64924;42.140;24.762;2023-05-06T00:32:30;99636.97;;;18.06;48.01
73870;BME280;64924;42.140;24.762;2023-05-06T00:34:55;99677.25;;;18.12;48.75
73870;BME280;64924;42.140;24.762;2023-05-06T00:37:20;99662.34;;;17.96;48.83
73870;BME280;64924;42.140;24.762;2023-05-06T00:39:46;99636.03;;;17.72;49.30
73870;BME280;64924;42.140;24.762;2023-05-06T00:42:11;99684.34;;;17.84;49.57
73870;BME280;64924;42.140;24.762;2023-05-06T00:44:37;99679.94;;;17.83;49.46
73870;BME280;64924;42.140;24.762;2023-05-06T00:47:03;99679.56;;;17.91;49.33
73870;BME280;64924;42.140;24.762;2023-05-06T00:49:29;99673.59;;;17.83;49.67
73870;BME280;64924;42.140;24.762;2023-05-06T00:51:55;99680.78;;;17.84;49.65
73870;BME280;64924;42.140;24.762;2023-05-06T00:54:23;99645.81;;;17.67;49.90
73870;BME280;64924;42.140;24.762;2023-05-06T00:56:49;99691.22;;;17.82;49.96
73870;BME280;64924;42.140;24.762;2023-05-06T00:59:15;99692.53;;;17.79;49.92
73870;BME280;64924;42.140;24.762;2023-05-06T01:01:40;99642.94;;;17.51;50.46
73870;BME280;64924;42.140;24.762;2023-05-06T01:04:06;99660.06;;;17.41;51.06
73870;BME280;64924;42.140;24.762;2023-05-06T01:07:07;99683.31;;;17.62;50.69
73870;BME280;64924;42.140;24.762;2023-05-06T01:09:43;99643.09;;;17.32;50.64
73870;BME280;64924;42.140;24.762;2023-05-06T01:12:28;99688.22;;;17.60;50.84
73870;BME280;64924;42.140;24.762;2023-05-06T01:15:01;99652.88;;;17.40;50.46
73870;BME280;64924;42.140;24.762;2023-05-06T01:17:35;99665.88;;;17.56;50.80
73870;BME280;64924;42.140;24.762;2023-05-06T01:20:05;99678.06;;;17.60;50.47
73870;BME280;64924;42.140;24.762;2023-05-06T01:22:35;99654.56;;;17.41;50.50
73870;BME280;64924;42.140;24.762;2023-05-06T01:25:01;99678.06;;;17.60;50.35
73870;BME280;64924;42.140;24.762;2023-05-06T01:27:27;99669.34;;;17.52;50.31
73870;BME280;64924;42.140;24.762;2023-05-06T01:29:52;99637.50;;;17.04;51.05
73870;BME280;64924;42.140;24.762;2023-05-06T01:40:13;99637.84;;;16.96;51.10
73870;BME280;64924;42.140;24.762;2023-05-06T01:42:40;99675.81;;;17.22;50.57
73870;BME280;64924;42.140;24.762;2023-05-06T01:45:09;99635.38;;;17.06;50.17
73870;BME280;64924;42.140;24.762;2023-05-06T01:47:36;99667.59;;;17.34;50.31
73870;BME280;64924;42.140;24.762;2023-05-06T01:50:02;99654.56;;;17.29;50.04
73870;BME280;64924;42.140;24.762;2023-05-06T01:52:28;99649.44;;;17.21;50.35
73870;BME280;64924;42.140;24.762;2023-05-06T01:54:54;99591.31;;;16.89;50.04
73870;BME280;64924;42.140;24.762;2023-05-06T01:57:19;99661.72;;;17.30;49.75
73870;BME280;64924;42.140;24.762;2023-05-06T01:59:45;99643.09;;;17.09;50.05
73870;BME280;64924;42.140;24.762;2023-05-06T02:02:10;99661.72;;;17.19;49.60
73870;BME280;64924;42.140;24.762;2023-05-06T02:04:36;99631.28;;;17.09;49.39
73870;BME280;64924;42.140;24.762;2023-05-06T02:07:01;99638.09;;;17.06;49.83
73870;BME280;64924;42.140;24.762;2023-05-06T02:09:27;99660.31;;;17.04;49.95
73870;BME280;64924;42.140;24.762;2023-05-06T02:11:52;99663.88;;;17.05;50.10
73870;BME280;64924;42.140;24.762;2023-05-06T02:14:18;99668.41;;;17.11;50.20
73870;BME280;64924;42.140;24.762;2023-05-06T02:16:43;99665.06;;;17.09;50.22
73870;BME280;64924;42.140;24.762;2023-05-06T02:19:09;99647.88;;;17.02;50.08
73870;BME280;64924;42.140;24.762;2023-05-06T02:21:34;99643.09;;;17.09;50.00
73870;BME280;64924;42.140;24.762;2023-05-06T02:24:00;99664.47;;;17.19;49.97
73870;BME280;64924;42.140;24.762;2023-05-06T02:26:25;99655.41;;;17.18;49.65
73870;BME280;64924;42.140;24.762;2023-05-06T02:28:50;99653.59;;;17.12;49.95
73870;BME280;64924;42.140;24.762;2023-05-06T02:31:16;99642.63;;;17.00;50.27
73870;BME280;64924;42.140;24.762;2023-05-06T02:33:43;99639.53;;;16.97;50.29
73870;BME280;64924;42.140;24.762;2023-05-06T02:36:09;99615.41;;;16.76;50.58
73870;BME280;64924;42.140;24.762;2023-05-06T02:38:34;99647.28;;;16.88;50.58
73870;BME280;64924;42.140;24.762;2023-05-06T02:41:00;99652.31;;;17.03;50.42
73870;BME280;64924;42.140;24.762;2023-05-06T02:43:25;99655.88;;;17.15;50.08
73870;BME280;64924;42.140;24.762;2023-05-06T02:45:51;99636.88;;;17.14;49.55
73870;BME280;64924;42.140;24.762;2023-05-06T02:48:16;99652.19;;;17.33;49.57
73870;BME280;64924;42.140;24.762;2023-05-06T02:50:42;99651.81;;;17.18;49.70
73870;BME280;64924;42.140;24.762;2023-05-06T02:53:07;99648.47;;;17.16;49.91
73870;BME280;64924;42.140;24.762;2023-05-06T02:55:34;99635.69;;;17.21;49.47
73870;BME280;64924;42.140;24.762;2023-05-06T02:58:00;99647.03;;;17.25;49.89
73870;BME280;64924;42.140;24.762;2023-05-06T03:00:26;99650.38;;;17.15;50.13
73870;BME280;64924;42.140;24.762;2023-05-06T03:02:51;99612.66;;;16.87;49.95
73870;BME280;64924;42.140;24.762;2023-05-06T03:05:17;99648.97;;;17.01;50.19
73870;BME280;64924;42.140;24.762;2023-05-06T03:07:43;99653.25;;;17.09;50.30
73870;BME280;64924;42.140;24.762;2023-05-06T03:10:08;99658.50;;;17.10;49.95
73870;BME280;64924;42.140;24.762;2023-05-06T03:12:34;99668.28;;;17.18;50.03
73870;BME280;64924;42.140;24.762;2023-05-06T03:15:00;99658.38;;;17.17;49.84
73870;BME280;64924;42.140;24.762;2023-05-06T03:17:25;99633.44;;;17.07;49.63
73870;BME280;64924;42.140;24.762;2023-05-06T03:19:50;99646.69;;;17.21;49.69
73870;BME280;64924;42.140;24.762;2023-05-06T03:22:16;99648.13;;;17.35;49.75
73870;BME280;64924;42.140;24.762;2023-05-06T03:24:41;99663.88;;;17.28;49.71
73870;BME280;64924;42.140;24.762;2023-05-06T03:27:07;99638.91;;;17.18;49.59
73870;BME280;64924;42.140;24.762;2023-05-06T03:29:32;99644.19;;;17.20;49.60
73870;BME280;64924;42.140;24.762;2023-05-06T03:32:01;99671.00;;;17.53;49.05
73870;BME280;64924;42.140;24.762;2023-05-06T03:34:28;99655.00;;;17.73;48.47
73870;BME280;64924;42.140;24.762;2023-05-06T03:36:53;99676.53;;;18.33;47.01
73870;BME280;64924;42.140;24.762;2023-05-06T03:39:19;99681.53;;;18.93;45.28
73870;BME280;64924;42.140;24.762;2023-05-06T03:41:44;99691.97;;;19.46;44.16
73870;BME280;64924;42.140;24.762;2023-05-06T03:44:10;99684.69;;;19.95;42.85
73870;BME280;64924;42.140;24.762;2023-05-06T03:46:35;99681.41;;;20.42;41.74
73870;BME280;64924;42.140;24.762;2023-05-06T03:49:03;99679.03;;;20.83;40.62
73870;BME280;64924;42.140;24.762;2023-05-06T03:51:28;99686.06;;;21.27;39.52
73870;BME280;64924;42.140;24.762;2023-05-06T03:53:55;99679.47;;;21.76;38.67
73870;BME280;64924;42.140;24.762;2023-05-06T03:56:20;99691.59;;;22.32;37.61
73870;BME280;64924;42.140;24.762;2023-05-06T03:58:47;99680.66;;;22.83;36.44
73870;BME280;64924;42.140;24.762;2023-05-06T04:01:12;99684.56;;;23.17;35.54
73870;BME280;64924;42.140;24.762;2023-05-06T04:03:39;99664.00;;;23.54;34.53
73870;BME280;64924;42.140;24.762;2023-05-06T04:06:05;99687.34;;;24.22;33.77
73870;BME280;64924;42.140;24.762;2023-05-06T04:08:31;99690.81;;;24.53;32.86
73870;BME280;64924;42.140;24.762;2023-05-06T04:10:56;99692.09;;;24.76;32.68
73870;BME280;64924;42.140;24.762;2023-05-06T04:13:22;99688.56;;;25.05;32.09
73870;BME280;64924;42.140;24.762;2023-05-06T04:15:48;99700.63;;;25.53;31.36
73870;BME280;64924;42.140;24.762;2023-05-06T04:18:14;99698.13;;;26.04;30.55
73870;BME280;64924;42.140;24.762;2023-05-06T04:20:45;99687.41;;;26.78;29.55
73870;BME280;64924;42.140;24.762;2023-05-06T04:23:12;99694.91;;;27.34;28.45
73870;BME280;64924;42.140;24.762;2023-05-06T04:25:37;99690.59;;;27.41;28.39
73870;BME280;64924;42.140;24.762;2023-05-06T04:28:03;99689.75;;;27.54;28.26
73870;BME280;64924;42.140;24.762;2023-05-06T04:30:29;99696.03;;;27.65;27.75
73870;BME280;64924;42.140;24.762;2023-05-06T04:32:54;99680.66;;;27.81;27.76
73870;BME280;64924;42.140;24.762;2023-05-06T04:35:20;99678.47;;;28.06;27.40
73870;BME280;64924;42.140;24.762;2023-05-06T04:37:45;99697.28;;;28.41;26.86
73870;BME280;64924;42.140;24.762;2023-05-06T04:40:13;99692.81;;;28.54;26.41
73870;BME280;64924;42.140;24.762;2023-05-06T04:42:38;99698.22;;;28.50;26.89
73870;BME280;64924;42.140;24.762;2023-05-06T04:45:04;99697.00;;;28.79;26.76
73870;BME280;64924;42.140;24.762;2023-05-06T04:47:30;99699.97;;;29.18;25.97
73870;BME280;64924;42.140;24.762;2023-05-06T04:49:55;99693.16;;;29.55;25.66
73870;BME280;64924;42.140;24.762;2023-05-06T04:52:21;99695.81;;;29.91;24.79
73870;BME280;64924;42.140;24.762;2023-05-06T04:54:47;99687.00;;;30.07;24.66
73870;BME280;64924;42.140;24.762;2023-05-06T04:57:12;99697.38;;;30.63;23.90
73870;BME280;64924;42.140;24.762;2023-05-06T04:59:38;99699.38;;;30.88;23.38
73870;BME280;64924;42.140;24.762;2023-05-06T05:02:03;99698.03;;;30.86;23.67
73870;BME280;64924;42.140;24.762;2023-05-06T05:04:29;99689.97;;;31.10;23.53
73870;BME280;64924;42.140;24.762;2023-05-06T05:06:54;99700.69;;;30.91;23.62
73870;BME280;64924;42.140;24.762;2023-05-06T05:09:20;99701.50;;;30.09;24.38
73870;BME280;64924;42.140;24.762;2023-05-06T05:11:46;99701.41;;;30.31;24.30
73870;BME280;64924;42.140;24.762;2023-05-06T05:14:11;99708.56;;;30.54;23.99
73870;BME280;64924;42.140;24.762;2023-05-06T05:16:37;99705.28;;;30.61;23.63
73870;BME280;64924;42.140;24.762;2023-05-06T05:19:02;99695.41;;;30.98;23.62
73870;BME280;64924;42.140;24.762;2023-05-06T05:21:28;99666.50;;;31.32;22.99
73870;BME280;64924;42.140;24.762;2023-05-06T05:23:53;99700.94;;;31.76;22.77
73870;BME280;64924;42.140;24.762;2023-05-06T05:26:19;99703.78;;;32.14;22.21
73870;BME280;64924;42.140;24.762;2023-05-06T05:28:44;99688.66;;;32.56;22.02
73870;BME280;64924;42.140;24.762;2023-05-06T05:31:10;99657.66;;;32.65;21.35
73870;BME280;64924;42.140;24.762;2023-05-06T05:33:35;99697.75;;;32.83;21.02
73870;BME280;64924;42.140;24.762;2023-05-06T05:36:01;99699.13;;;32.98;21.20
73870;BME280;64924;42.140;24.762;2023-05-06T05:38:26;99699.78;;;33.15;20.70
73870;BME280;64924;42.140;24.762;2023-05-06T05:40:52;99685.72;;;33.48;20.61
73870;BME280;64924;42.140;24.762;2023-05-06T05:43:17;99674.00;;;34.04;19.97
73870;BME280;64924;42.140;24.762;2023-05-06T05:45:45;99702.03;;;34.73;19.38
73870;BME280;64924;42.140;24.762;2023-05-06T05:48:10;99690.66;;;35.10;18.96
73870;BME280;64924;42.140;24.762;2023-05-06T05:50:36;99705.28;;;35.40;18.78
73870;BME280;64924;42.140;24.762;2023-05-06T05:53:01;99699.53;;;35.80;18.60
73870;BME280;64924;42.140;24.762;2023-05-06T05:55:28;99672.28;;;35.88;18.35
73870;BME280;64924;42.140;24.762;2023-05-06T05:57:53;99710.50;;;36.29;17.54
73870;BME280;64924;42.140;24.762;2023-05-06T06:00:19;99693.09;;;36.27;17.92
73870;BME280;64924;42.140;24.762;2023-05-06T06:02:45;99680.53;;;36.43;17.63
73870;BME280;64924;42.140;24.762;2023-05-06T06:05:10;99704.38;;;36.11;17.94
73870;BME280;64924;42.140;24.762;2023-05-06T06:07:36;99675.28;;;35.95;17.97
73870;BME280;64924;42.140;24.762;2023-05-06T06:10:02;99658.31;;;35.79;18.22
73870;BME280;64924;42.140;24.762;2023-05-06T06:12:28;99704.00;;;36.44;17.92
73870;BME280;64924;42.140;24.762;2023-05-06T06:14:54;99700.91;;;36.84;17.30
73870;BME280;64924;42.140;24.762;2023-05-06T06:17:19;99670.72;;;36.92;17.21
73870;BME280;64924;42.140;24.762;2023-05-06T06:19:45;99692.63;;;36.75;17.54
73870;BME280;64924;42.140;24.762;2023-05-06T06:22:14;99699.91;;;37.31;17.12
73870;BME280;64924;42.140;24.762;2023-05-06T06:24:40;99696.28;;;37.14;17.17
73870;BME280;64924;42.140;24.762;2023-05-06T06:27:05;99666.31;;;37.13;16.73
73870;BME280;64924;42.140;24.762;2023-05-06T06:29:31;99701.63;;;37.35;16.83
73870;BME280;64924;42.140;24.762;2023-05-06T06:31:58;99688.34;;;37.62;16.57
73870;BME280;64924;42.140;24.762;2023-05-06T06:34:23;99681.91;;;38.07;16.16
73870;BME280;64924;42.140;24.762;2023-05-06T06:36:49;99681.88;;;38.30;16.18
73870;BME280;64924;42.140;24.762;2023-05-06T06:39:15;99673.88;;;38.36;16.12
73870;BME280;64924;42.140;24.762;2023-05-06T06:41:40;99675.34;;;38.53;15.90
73870;BME280;64924;42.140;24.762;2023-05-06T06:44:06;99653.81;;;38.25;16.06
73870;BME280;64924;42.140;24.762;2023-05-06T06:46:32;99683.31;;;38.43;16.03
73870;BME280;64924;42.140;24.762;2023-05-06T06:48:59;99679.44;;;38.06;16.10
73870;BME280;64924;42.140;24.762;2023-05-06T06:51:24;99686.75;;;38.07;16.33
73870;BME280;64924;42.140;24.762;2023-05-06T06:53:50;99683.94;;;37.65;16.40
73870;BME280;64924;42.140;24.762;2023-05-06T06:56:16;99691.00;;;36.74;17.02
73870;BME280;64924;42.140;24.762;2023-05-06T06:58:42;99685.16;;;36.52;17.40
73870;BME280;64924;42.140;24.762;2023-05-06T07:01:09;99698.81;;;36.81;17.57
73870;BME280;64924;42.140;24.762;2023-05-06T07:03:35;99685.34;;;37.13;17.07
73870;BME280;64924;42.140;24.762;2023-05-06T07:06:00;99664.66;;;37.51;16.67
73870;BME280;64924;42.140;24.762;2023-05-06T07:08:26;99690.47;;;37.88;16.36
73870;BME280;64924;42.140;24.762;2023-05-06T07:10:51;99685.28;;;37.29;16.50
73870;BME280;64924;42.140;24.762;2023-05-06T07:13:17;99668.84;;;37.19;16.47
73870;BME280;64924;42.140;24.762;2023-05-06T07:15:44;99684.53;;;36.93;16.92
73870;BME280;64924;42.140;24.762;2023-05-06T07:18:10;99686.56;;;36.42;17.10
73870;BME280;64924;42.140;24.762;2023-05-06T07:20:35;99679.28;;;36.09;17.57
73870;BME280;64924;42.140;24.762;2023-05-06T07:23:01;99684.69;;;36.30;17.50
73870;BME280;64924;42.140;24.762;2023-05-06T07:25:26;99680.06;;;36.41;17.33
73870;BME280;64924;42.140;24.762;2023-05-06T07:27:52;99635.31;;;36.82;16.67
73870;BME280;64924;42.140;24.762;2023-05-06T07:30:17;99669.00;;;37.45;16.53
73870;BME280;64924;42.140;24.762;2023-05-06T07:32:44;99688.41;;;37.24;16.56
73870;BME280;64924;42.140;24.762;2023-05-06T07:35:10;99672.97;;;37.40;16.03
73870;BME280;64924;42.140;24.762;2023-05-06T07:37:35;99686.63;;;37.35;15.70
73870;BME280;64924;42.140;24.762;2023-05-06T07:40:01;99687.22;;;37.25;16.23
73870;BME280;64924;42.140;24.762;2023-05-06T07:42:26;99673.91;;;37.67;15.97
73870;BME280;64924;42.140;24.762;2023-05-06T07:44:52;99646.75;;;36.70;15.88
73870;BME280;64924;42.140;24.762;2023-05-06T07:47:30;99682.88;;;36.57;16.60
73870;BME280;64924;42.140;24.762;2023-05-06T07:49:57;99696.06;;;36.85;16.62
73870;BME280;64924;42.140;24.762;2023-05-06T07:52:23;99691.59;;;36.83;16.42
73870;BME280;64924;42.140;24.762;2023-05-06T07:54:51;99682.91;;;37.11;16.07
73870;BME280;64924;42.140;24.762;2023-05-06T07:57:17;99689.84;;;36.44;16.71
73870;BME280;64924;42.140;24.762;2023-05-06T07:59:45;99702.50;;;36.66;16.28
73870;BME280;64924;42.140;24.762;2023-05-06T08:02:11;99699.13;;;36.76;16.37
73870;BME280;64924;42.140;24.762;2023-05-06T08:04:36;99691.66;;;36.52;16.13
73870;BME280;64924;42.140;24.762;2023-05-06T08:07:02;99696.16;;;35.90;16.75
73870;BME280;64924;42.140;24.762;2023-05-06T08:09:27;99696.63;;;36.24;16.83
73870;BME280;64924;42.140;24.762;2023-05-06T08:11:53;99689.28;;;35.75;16.67
73870;BME280;64924;42.140;24.762;2023-05-06T08:14:18;99696.81;;;35.83;16.81
73870;BME280;64924;42.140;24.762;2023-05-06T08:16:44;99671.75;;;35.54;17.08
73870;BME280;64924;42.140;24.762;2023-05-06T08:19:09;99655.78;;;35.46;17.22
73870;BME280;64924;42.140;24.762;2023-05-06T08:21:35;99678.75;;;35.88;17.12
73870;BME280;64924;42.140;24.762;2023-05-06T08:24:00;99664.88;;;36.30;16.72
73870;BME280;64924;42.140;24.762;2023-05-06T08:26:26;99689.38;;;36.58;16.68
73870;BME280;64924;42.140;24.762;2023-05-06T08:28:51;99672.72;;;36.72;16.16
73870;BME280;64924;42.140;24.762;2023-05-06T08:31:17;99684.09;;;36.40;16.19
73870;BME280;64924;42.140;24.762;2023-05-06T08:33:42;99694.25;;;35.78;16.65
73870;BME280;64924;42.140;24.762;2023-05-06T08:36:08;99697.00;;;34.54;17.25
73870;BME280;64924;42.140;24.762;2023-05-06T08:38:33;99694.63;;;33.17;18.75
73870;BME280;64924;42.140;24.762;2023-05-06T08:41:01;99694.28;;;32.56;19.06
73870;BME280;64924;42.140;24.762;2023-05-06T08:43:35;99694.91;;;30.96;20.59
73870;BME280;64924;42.140;24.762;2023-05-06T08:46:04;99696.22;;;31.42;20.59
73870;BME280;64924;42.140;24.762;2023-05-06T08:48:30;99690.75;;;31.54;20.42
73870;BME280;64924;42.140;24.762;2023-05-06T08:50:56;99694.84;;;31.65;20.44
73870;BME280;64924;42.140;24.762;2023-05-06T08:53:25;99685.81;;;31.51;20.48
73870;BME280;64924;42.140;24.762;2023-05-06T08:55:53;99641.63;;;31.69;19.88
73870;BME280;64924;42.140;24.762;2023-05-06T08:58:20;99667.97;;;31.94;20.55
73870;BME280;64924;42.140;24.762;2023-05-06T09:00:47;99675.22;;;32.33;19.64
73870;BME280;64924;42.140;24.762;2023-05-06T09:03:13;99695.91;;;31.35;20.66
73870;BME280;64924;42.140;24.762;2023-05-06T09:05:38;99669.50;;;31.10;21.03
73870;BME280;64924;42.140;24.762;2023-05-06T09:08:04;99681.38;;;31.33;20.89
73870;BME280;64924;42.140;24.762;2023-05-06T09:10:45;99690.16;;;31.14;20.92
73870;BME280;64924;42.140;24.762;2023-05-06T09:13:13;99685.19;;;30.68;21.72
73870;BME280;64924;42.140;24.762;2023-05-06T09:15:43;99687.72;;;30.30;21.99
73870;BME280;64924;42.140;24.762;2023-05-06T09:18:10;99677.34;;;29.90;22.88
73870;BME280;64924;42.140;24.762;2023-05-06T09:20:48;99671.00;;;29.68;23.38
73870;BME280;64924;42.140;24.762;2023-05-06T09:23:16;99692.66;;;29.31;23.52
73870;BME280;64924;42.140;24.762;2023-05-06T09:25:43;99675.78;;;29.00;23.70
73870;BME280;64924;42.140;24.762;2023-05-06T09:28:11;99687.69;;;28.70;24.45
73870;BME280;64924;42.140;24.762;2023-05-06T09:30:41;99681.88;;;28.80;24.10
73870;BME280;64924;42.140;24.762;2023-05-06T09:33:07;99677.13;;;28.31;24.74
73870;BME280;64924;42.140;24.762;2023-05-06T09:35:37;99653.50;;;28.73;23.98
73870;BME280;64924;42.140;24.762;2023-05-06T09:38:04;99650.59;;;28.78;23.99
73870;BME280;64924;42.140;24.762;2023-05-06T09:40:29;99666.97;;;28.71;23.99
73870;BME280;64924;42.140;24.762;2023-05-06T09:42:55;99674.84;;;28.33;24.58
73870;BME280;64924;42.140;24.762;2023-05-06T09:45:22;99680.75;;;28.04;25.12
73870;BME280;64924;42.140;24.762;2023-05-06T09:47:48;99662.34;;;27.75;25.43
73870;BME280;64924;42.140;24.762;2023-05-06T09:50:14;99680.72;;;27.30;25.70
73870;BME280;64924;42.140;24.762;2023-05-06T09:52:44;99669.44;;;27.21;26.04
73870;BME280;64924;42.140;24.762;2023-05-06T09:55:10;99626.44;;;27.22;25.96
73870;BME280;64924;42.140;24.762;2023-05-06T09:57:36;99672.66;;;27.61;25.55
73870;BME280;64924;42.140;24.762;2023-05-06T10:00:02;99668.03;;;27.38;25.45
73870;BME280;64924;42.140;24.762;2023-05-06T10:02:31;99647.13;;;27.68;25.27
73870;BME280;64924;42.140;24.762;2023-05-06T10:04:57;99658.28;;;27.68;25.18
73870;BME280;64924;42.140;24.762;2023-05-06T10:07:22;99665.50;;;27.22;24.75
73870;BME280;64924;42.140;24.762;2023-05-06T10:09:49;99659.78;;;26.62;25.90
73870;BME280;64924;42.140;24.762;2023-05-06T10:12:15;99658.09;;;26.00;26.70
73870;BME280;64924;42.140;24.762;2023-05-06T10:14:42;99656.66;;;25.55;27.59
73870;BME280;64924;42.140;24.762;2023-05-06T10:17:08;99650.09;;;25.70;27.53
73870;BME280;64924;42.140;24.762;2023-05-06T10:19:38;99633.69;;;25.68;27.45
73870;BME280;64924;42.140;24.762;2023-05-06T10:25:32;99665.84;;;25.55;28.42
73870;BME280;64924;42.140;24.762;2023-05-06T10:27:59;99667.47;;;25.27;28.16
73870;BME280;64924;42.140;24.762;2023-05-06T10:30:27;99644.66;;;25.30;27.89
73870;BME280;64924;42.140;24.762;2023-05-06T10:32:56;99658.09;;;25.76;27.74
73870;BME280;64924;42.140;24.762;2023-05-06T10:35:30;99651.63;;;26.05;26.72
73870;BME280;64924;42.140;24.762;2023-05-06T10:38:02;99615.00;;;26.16;26.27
73870;BME280;64924;42.140;24.762;2023-05-06T10:40:30;99645.25;;;26.66;26.12
73870;BME280;64924;42.140;24.762;2023-05-06T10:43:25;99649.59;;;26.53;26.13
73870;BME280;64924;42.140;24.762;2023-05-06T10:46:02;99651.44;;;26.20;26.60
73870;BME280;64924;42.140;24.762;2023-05-06T10:48:29;99656.25;;;26.14;26.79
73870;BME280;64924;42.140;24.762;2023-05-06T10:51:23;99651.03;;;26.32;26.92
73870;BME280;64924;42.140;24.762;2023-05-06T10:56:29;99665.41;;;25.43;28.61
73870;BME280;64924;42.140;24.762;2023-05-06T10:58:56;99661.16;;;25.51;28.56
73870;BME280;64924;42.140;24.762;2023-05-06T11:01:25;99657.69;;;25.06;29.07
73870;BME280;64924;42.140;24.762;2023-05-06T11:03:51;99657.56;;;24.82;29.51
73870;BME280;64924;42.140;24.762;2023-05-06T11:06:49;99662.22;;;24.53;29.79
73870;BME280;64924;42.140;24.762;2023-05-06T11:09:22;99667.91;;;24.32;30.49
73870;BME280;64924;42.140;24.762;2023-05-06T11:11:53;99663.72;;;24.35;30.31
73870;BME280;64924;42.140;24.762;2023-05-06T11:14:26;99671.25;;;24.29;29.92
73870;BME280;64924;42.140;24.762;2023-05-06T11:16:53;99664.59;;;24.15;30.31
73870;BME280;64924;42.140;24.762;2023-05-06T11:21:52;99660.78;;;24.06;30.55
73870;BME280;64924;42.140;24.762;2023-05-06T11:24:25;99662.06;;;24.34;30.45
73870;BME280;64924;42.140;24.762;2023-05-06T11:26:52;99621.53;;;24.33;29.73
73870;BME280;64924;42.140;24.762;2023-05-06T11:29:18;99665.97;;;24.72;29.36
73870;BME280;64924;42.140;24.762;2023-05-06T11:31:44;99641.22;;;24.76;29.30
73870;BME280;64924;42.140;24.762;2023-05-06T11:34:12;99661.00;;;25.08;29.24
73870;BME280;64924;42.140;24.762;2023-05-06T11:36:50;99664.31;;;25.39;28.74
73870;BME280;64924;42.140;24.762;2023-05-06T11:39:16;99667.16;;;25.34;29.04
73870;BME280;64924;42.140;24.762;2023-05-06T11:41:41;99650.56;;;25.53;28.01
73870;BME280;64924;42.140;24.762;2023-05-06T11:44:07;99658.91;;;25.53;27.98
73870;BME280;64924;42.140;24.762;2023-05-06T11:46:34;99661.66;;;25.82;27.75
73870;BME280;64924;42.140;24.762;2023-05-06T11:49:00;99656.34;;;25.85;27.56
73870;BME280;64924;42.140;24.762;2023-05-06T11:51:26;99653.97;;;25.97;27.69
73870;BME280;64924;42.140;24.762;2023-05-06T11:54:06;99643.69;;;26.17;27.67
73870;BME280;64924;42.140;24.762;2023-05-06T11:59:13;99656.63;;;26.32;27.60
73870;BME280;64924;42.140;24.762;2023-05-06T12:01:43;99656.59;;;26.50;27.11
73870;BME280;64924;42.140;24.762;2023-05-06T12:04:09;99654.56;;;26.37;27.13
73870;BME280;64924;42.140;24.762;2023-05-06T12:06:35;99654.22;;;26.20;27.82
73870;BME280;64924;42.140;24.762;2023-05-06T12:09:06;99652.59;;;26.38;27.71
73870;BME280;64924;42.140;24.762;2023-05-06T12:11:34;99639.66;;;26.47;27.55
73870;BME280;64924;42.140;24.762;2023-05-06T12:14:02;99649.84;;;26.56;27.38
73870;BME280;64924;42.140;24.762;2023-05-06T12:16:29;99649.81;;;26.38;27.41
73870;BME280;64924;42.140;24.762;2023-05-06T12:18:55;99651.56;;;26.34;27.39
73870;BME280;64924;42.140;24.762;2023-05-06T12:21:22;99654.06;;;26.35;27.69
73870;BME280;64924;42.140;24.762;2023-05-06T12:23:52;99649.72;;;26.24;27.48
73870;BME280;64924;42.140;24.762;2023-05-06T12:26:18;99615.06;;;25.92;27.91
73870;BME280;64924;42.140;24.762;2023-05-06T12:28:44;99647.88;;;26.14;27.73
73870;BME280;64924;42.140;24.762;2023-05-06T12:31:22;99658.63;;;26.45;27.31
73870;BME280;64924;42.140;24.762;2023-05-06T12:33:50;99653.44;;;26.38;27.18
73870;BME280;64924;42.140;24.762;2023-05-06T12:36:18;99645.16;;;26.09;27.67
73870;BME280;64924;42.140;24.762;2023-05-06T12:38:52;99643.34;;;25.99;27.81
73870;BME280;64924;42.140;24.762;2023-05-06T12:41:21;99637.16;;;26.03;27.74
73870;BME280;64924;42.140;24.762;2023-05-06T12:43:47;99629.03;;;26.30;27.41
73870;BME280;64924;42.140;24.762;2023-05-06T12:46:14;99645.25;;;26.66;27.36
73870;BME280;64924;42.140;24.762;2023-05-06T12:49:01;99640.56;;;27.12;26.47
73870;BME280;64924;42.140;24.762;2023-05-06T12:51:27;99607.00;;;27.04;26.08
73870;BME280;64924;42.140;24.762;2023-05-06T12:53:55;99638.69;;;27.40;26.20
73870;BME280;64924;42.140;24.762;2023-05-06T12:56:20;99632.72;;;27.47;26.15
73870;BME280;64924;42.140;24.762;2023-05-06T12:58:59;99630.63;;;27.52;25.96
73870;BME280;64924;42.140;24.762;2023-05-06T13:01:26;99637.69;;;27.63;25.61
73870;BME280;64924;42.140;24.762;2023-05-06T13:03:53;99627.16;;;27.60;25.69
73870;BME280;64924;42.140;24.762;2023-05-06T13:06:19;99636.34;;;27.61;25.48
73870;BME280;64924;42.140;24.762;2023-05-06T13:08:44;99627.66;;;27.62;25.43